sensor_id;sensor_type;location;lat;lon;timestamp;P1;durP1;ratioP1;P2;durP2;ratioP2
11418;SDS011;32800;44.876;13.880;2022-11-20T00:01:07;0.97;;;0.63;;
11418;SDS011;32800;44.876;13.880;2022-11-20T00:03:33;1.17;;;0.60;;
11418;SDS011;32800;44.876;13.880;2022-11-20T00:06:00;0.80;;;0.70;;
11418;SDS011;32800;44.876;13.880;2022-11-20T00:08:26;0.53;;;0.53;;
11418;SDS011;32800;44.876;13.880;2022-11-20T00:10:51;0.50;;;0.50;;
11418;SDS011;32800;44.876;13.880;2022-11-20T00:13:17;1.00;;;0.60;;
11418;SDS011;32800;44.876;13.880;2022-11-20T00:15:42;2.00;;;0.50;;
11418;SDS011;32800;44.876;13.880;2022-11-20T00:18:08;1.80;;;0.50;;
11418;SDS011;32800;44.876;13.880;2022-11-20T00:20:34;0.50;;;0.50;;
11418;SDS011;32800;44.876;13.880;2022-11-20T00:22:59;0.97;;;0.57;;
11418;SDS011;32800;44.876;13.880;2022-11-20T00:25:25;1.50;;;0.50;;
11418;SDS011;32800;44.876;13.880;2022-11-20T00:27:50;2.57;;;0.70;;
11418;SDS011;32800;44.876;13.880;2022-11-20T00:30:16;0.80;;;0.70;;
11418;SDS011;32800;44.876;13.880;2022-11-20T00:32:41;1.13;;;0.60;;
11418;SDS011;32800;44.876;13.880;2022-11-20T00:35:07;1.13;;;0.60;;
11418;SDS011;32800;44.876;13.880;2022-11-20T00:37:32;1.07;;;0.50;;
11418;SDS011;32800;44.876;13.880;2022-11-20T00:39:58;1.33;;;0.70;;
11418;SDS011;32800;44.876;13.880;2022-11-20T00:42:23;1.47;;;0.60;;
11418;SDS011;32800;44.876;13.880;2022-11-20T00:44:49;0.60;;;0.60;;
11418;SDS011;32800;44.876;13.880;2022-11-20T00:47:14;0.57;;;0.50;;
11418;SDS011;32800;44.876;13.880;2022-11-20T00:49:40;0.70;;;0.50;;
11418;SDS011;32800;44.876;13.880;2022-11-20T00:52:05;0.63;;;0.50;;
11418;SDS011;32800;44.876;13.880;2022-11-20T00:54:31;0.90;;;0.53;;
11418;SDS011;32800;44.876;13.880;2022-11-20T00:56:57;1.33;;;0.50;;
11418;SDS011;32800;44.876;13.880;2022-11-20T00:59:22;0.60;;;0.60;;
11418;SDS011;32800;44.876;13.880;2022-11-20T01:01:47;0.67;;;0.50;;
11418;SDS011;32800;44.876;13.880;2022-11-20T01:04:13;0.40;;;0.40;;
11418;SDS011;32800;44.876;13.880;2022-11-20T01:06:39;1.03;;;0.50;;
11418;SDS011;32800;44.876;13.880;2022-11-20T01:09:06;0.50;;;0.50;;
11418;SDS011;32800;44.876;13.880;2022-11-20T01:11:37;0.50;;;0.50;;
11418;SDS011;32800;44.876;13.880;2022-11-20T01:14:05;0.63;;;0.57;;
11418;SDS011;32800;44.876;13.880;2022-11-20T01:16:45;0.60;;;0.50;;
11418;SDS011;32800;44.876;13.880;2022-11-20T01:19:17;0.70;;;0.50;;
11418;SDS011;32800;44.876;13.880;2022-11-20T01:21:44;0.83;;;0.70;;
11418;SDS011;32800;44.876;13.880;2022-11-20T01:24:12;0.50;;;0.50;;
11418;SDS011;32800;44.876;13.880;2022-11-20T01:26:40;0.80;;;0.60;;
11418;SDS011;32800;44.876;13.880;2022-11-20T01:29:06;0.50;;;0.50;;
11418;SDS011;32800;44.876;13.880;2022-11-20T01:31:35;0.70;;;0.67;;
11418;SDS011;32800;44.876;13.880;2022-11-20T01:34:03;0.50;;;0.50;;
11418;SDS011;32800;44.876;13.880;2022-11-20T01:36:31;0.73;;;0.50;;
11418;SDS011;32800;44.876;13.880;2022-11-20T01:38:58;1.17;;;0.60;;
11418;SDS011;32800;44.876;13.880;2022-11-20T01:41:25;0.50;;;0.50;;
11418;SDS011;32800;44.876;13.880;2022-11-20T01:44:12;0.73;;;0.67;;
11418;SDS011;32800;44.876;13.880;2022-11-20T01:46:40;1.80;;;0.60;;
11418;SDS011;32800;44.876;13.880;2022-11-20T01:49:16;0.97;;;0.57;;
11418;SDS011;32800;44.876;13.880;2022-11-20T01:52:01;0.50;;;0.50;;
11418;SDS011;32800;44.876;13.880;2022-11-20T01:54:41;0.53;;;0.53;;
11418;SDS011;32800;44.876;13.880;2022-11-20T01:57:10;0.53;;;0.50;;
11418;SDS011;32800;44.876;13.880;2022-11-20T01:59:40;3.70;;;0.57;;
11418;SDS011;32800;44.876;13.880;2022-11-20T02:02:09;1.07;;;0.50;;
11418;SDS011;32800;44.876;13.880;2022-11-20T02:04:35;0.90;;;0.50;;
11418;SDS011;32800;44.876;13.880;2022-11-20T02:07:01;0.30;;;0.30;;
11418;SDS011;32800;44.876;13.880;2022-11-20T02:09:27;0.93;;;0.63;;
11418;SDS011;32800;44.876;13.880;2022-11-20T02:11:53;0.77;;;0.60;;
11418;SDS011;32800;44.876;13.880;2022-11-20T02:14:20;0.63;;;0.47;;
11418;SDS011;32800;44.876;13.880;2022-11-20T02:16:48;1.17;;;0.60;;
11418;SDS011;32800;44.876;13.880;2022-11-20T02:19:22;0.40;;;0.40;;
11418;SDS011;32800;44.876;13.880;2022-11-20T02:24:25;0.40;;;0.40;;
11418;SDS011;32800;44.876;13.880;2022-11-20T02:26:59;0.57;;;0.47;;
11418;SDS011;32800;44.876;13.880;2022-11-20T02:29:31;0.70;;;0.40;;
11418;SDS011;32800;44.876;13.880;2022-11-20T02:32:00;1.23;;;0.60;;
11418;SDS011;32800;44.876;13.880;2022-11-20T02:34:26;0.63;;;0.60;;
11418;SDS011;32800;44.876;13.880;2022-11-20T02:36:52;0.90;;;0.43;;
11418;SDS011;32800;44.876;13.880;2022-11-20T02:39:18;0.50;;;0.50;;
11418;SDS011;32800;44.876;13.880;2022-11-20T02:41:44;0.40;;;0.40;;
11418;SDS011;32800;44.876;13.880;2022-11-20T02:44:10;0.50;;;0.50;;
11418;SDS011;32800;44.876;13.880;2022-11-20T02:46:35;0.90;;;0.40;;
11418;SDS011;32800;44.876;13.880;2022-11-20T02:49:02;0.50;;;0.40;;
11418;SDS011;32800;44.876;13.880;2022-11-20T02:51:28;0.70;;;0.40;;
11418;SDS011;32800;44.876;13.880;2022-11-20T02:53:54;0.80;;;0.33;;
11418;SDS011;32800;44.876;13.880;2022-11-20T02:56:19;0.90;;;0.50;;
11418;SDS011;32800;44.876;13.880;2022-11-20T02:58:45;0.50;;;0.50;;
11418;SDS011;32800;44.876;13.880;2022-11-20T03:01:11;0.40;;;0.40;;
11418;SDS011;32800;44.876;13.880;2022-11-20T03:03:36;0.47;;;0.40;;
11418;SDS011;32800;44.876;13.880;2022-11-20T03:06:02;0.70;;;0.70;;
11418;SDS011;32800;44.876;13.880;2022-11-20T03:08:27;0.50;;;0.50;;
11418;SDS011;32800;44.876;13.880;2022-11-20T03:10:53;0.73;;;0.43;;
11418;SDS011;32800;44.876;13.880;2022-11-20T03:13:19;0.50;;;0.50;;
11418;SDS011;32800;44.876;13.880;2022-11-20T03:15:44;0.60;;;0.47;;
11418;SDS011;32800;44.876;13.880;2022-11-20T03:18:10;0.47;;;0.47;;
11418;SDS011;32800;44.876;13.880;2022-11-20T03:20:35;0.80;;;0.40;;
11418;SDS011;32800;44.876;13.880;2022-11-20T03:23:01;0.63;;;0.50;;
11418;SDS011;32800;44.876;13.880;2022-11-20T03:25:26;0.40;;;0.40;;
11418;SDS011;32800;44.876;13.880;2022-11-20T03:27:52;0.73;;;0.60;;
11418;SDS011;32800;44.876;13.880;2022-11-20T03:30:19;1.23;;;0.50;;
11418;SDS011;32800;44.876;13.880;2022-11-20T03:32:44;0.73;;;0.33;;
11418;SDS011;32800;44.876;13.880;2022-11-20T03:35:10;0.80;;;0.50;;
11418;SDS011;32800;44.876;13.880;2022-11-20T03:37:35;0.33;;;0.33;;
11418;SDS011;32800;44.876;13.880;2022-11-20T03:40:01;0.70;;;0.37;;
11418;SDS011;32800;44.876;13.880;2022-11-20T03:42:26;1.33;;;0.40;;
11418;SDS011;32800;44.876;13.880;2022-11-20T03:45:11;0.93;;;0.50;;
11418;SDS011;32800;44.876;13.880;2022-11-20T03:47:38;0.40;;;0.40;;
11418;SDS011;32800;44.876;13.880;2022-11-20T03:50:04;0.67;;;0.50;;
11418;SDS011;32800;44.876;13.880;2022-11-20T03:52:29;0.40;;;0.40;;
11418;SDS011;32800;44.876;13.880;2022-11-20T03:54:55;0.27;;;0.20;;
11418;SDS011;32800;44.876;13.880;2022-11-20T03:57:20;0.40;;;0.40;;
11418;SDS011;32800;44.876;13.880;2022-11-20T03:59:46;0.40;;;0.30;;
11418;SDS011;32800;44.876;13.880;2022-11-20T04:02:11;0.30;;;0.30;;
11418;SDS011;32800;44.876;13.880;2022-11-20T04:04:37;0.67;;;0.50;;
11418;SDS011;32800;44.876;13.880;2022-11-20T04:07:02;0.40;;;0.40;;
11418;SDS011;32800;44.876;13.880;2022-11-20T04:09:28;0.40;;;0.40;;
11418;SDS011;32800;44.876;13.880;2022-11-20T04:11:53;0.60;;;0.50;;
11418;SDS011;32800;44.876;13.880;2022-11-20T04:14:19;0.50;;;0.50;;
11418;SDS011;32800;44.876;13.880;2022-11-20T04:16:44;0.30;;;0.30;;
11418;SDS011;32800;44.876;13.880;2022-11-20T04:19:12;0.30;;;0.30;;
11418;SDS011;32800;44.876;13.880;2022-11-20T04:21:38;0.30;;;0.30;;
11418;SDS011;32800;44.876;13.880;2022-11-20T04:24:04;0.40;;;0.40;;
11418;SDS011;32800;44.876;13.880;2022-11-20T04:26:30;0.40;;;0.37;;
11418;SDS011;32800;44.876;13.880;2022-11-20T04:28:56;0.43;;;0.40;;
11418;SDS011;32800;44.876;13.880;2022-11-20T04:31:24;0.43;;;0.40;;
11418;SDS011;32800;44.876;13.880;2022-11-20T04:33:51;0.50;;;0.50;;
11418;SDS011;32800;44.876;13.880;2022-11-20T04:36:23;0.67;;;0.50;;
11418;SDS011;32800;44.876;13.880;2022-11-20T04:38:51;0.40;;;0.40;;
11418;SDS011;32800;44.876;13.880;2022-11-20T04:41:18;0.60;;;0.40;;
11418;SDS011;32800;44.876;13.880;2022-11-20T04:43:47;0.53;;;0.40;;
11418;SDS011;32800;44.876;13.880;2022-11-20T04:46:18;0.93;;;0.40;;
11418;SDS011;32800;44.876;13.880;2022-11-20T04:48:45;0.50;;;0.50;;
11418;SDS011;32800;44.876;13.880;2022-11-20T04:51:10;0.50;;;0.30;;
11418;SDS011;32800;44.876;13.880;2022-11-20T04:53:37;0.50;;;0.50;;
11418;SDS011;32800;44.876;13.880;2022-11-20T04:56:04;0.70;;;0.40;;
11418;SDS011;32800;44.876;13.880;2022-11-20T04:58:31;0.33;;;0.33;;
11418;SDS011;32800;44.876;13.880;2022-11-20T05:01:04;0.40;;;0.40;;
11418;SDS011;32800;44.876;13.880;2022-11-20T05:03:31;0.30;;;0.30;;
11418;SDS011;32800;44.876;13.880;2022-11-20T05:06:00;0.60;;;0.40;;
11418;SDS011;32800;44.876;13.880;2022-11-20T05:08:28;0.30;;;0.30;;
11418;SDS011;32800;44.876;13.880;2022-11-20T05:10:58;0.30;;;0.30;;
11418;SDS011;32800;44.876;13.880;2022-11-20T05:13:25;0.40;;;0.40;;
11418;SDS011;32800;44.876;13.880;2022-11-20T05:15:51;0.43;;;0.40;;
11418;SDS011;32800;44.876;13.880;2022-11-20T05:18:17;0.60;;;0.50;;
11418;SDS011;32800;44.876;13.880;2022-11-20T05:20:42;0.50;;;0.50;;
11418;SDS011;32800;44.876;13.880;2022-11-20T05:23:08;0.53;;;0.40;;
11418;SDS011;32800;44.876;13.880;2022-11-20T05:25:33;0.40;;;0.40;;
11418;SDS011;32800;44.876;13.880;2022-11-20T05:27:59;1.40;;;0.50;;
11418;SDS011;32800;44.876;13.880;2022-11-20T05:30:25;0.30;;;0.30;;
11418;SDS011;32800;44.876;13.880;2022-11-20T05:32:50;0.40;;;0.40;;
11418;SDS011;32800;44.876;13.880;2022-11-20T05:35:16;0.50;;;0.50;;
11418;SDS011;32800;44.876;13.880;2022-11-20T05:37:41;0.30;;;0.30;;
11418;SDS011;32800;44.876;13.880;2022-11-20T05:40:07;0.40;;;0.40;;
11418;SDS011;32800;44.876;13.880;2022-11-20T05:42:33;0.40;;;0.40;;
11418;SDS011;32800;44.876;13.880;2022-11-20T05:45:00;0.30;;;0.30;;
11418;SDS011;32800;44.876;13.880;2022-11-20T05:47:27;0.37;;;0.37;;
11418;SDS011;32800;44.876;13.880;2022-11-20T05:49:56;0.33;;;0.33;;
11418;SDS011;32800;44.876;13.880;2022-11-20T05:52:21;0.30;;;0.30;;
11418;SDS011;32800;44.876;13.880;2022-11-20T05:54:47;1.17;;;0.30;;
11418;SDS011;32800;44.876;13.880;2022-11-20T05:57:13;0.30;;;0.30;;
11418;SDS011;32800;44.876;13.880;2022-11-20T05:59:38;0.33;;;0.30;;
11418;SDS011;32800;44.876;13.880;2022-11-20T06:02:04;1.03;;;0.50;;
11418;SDS011;32800;44.876;13.880;2022-11-20T06:04:29;0.30;;;0.30;;
11418;SDS011;32800;44.876;13.880;2022-11-20T06:06:55;0.30;;;0.30;;
11418;SDS011;32800;44.876;13.880;2022-11-20T06:09:21;1.27;;;0.60;;
11418;SDS011;32800;44.876;13.880;2022-11-20T06:11:46;1.20;;;0.40;;
11418;SDS011;32800;44.876;13.880;2022-11-20T06:14:12;0.50;;;0.50;;
11418;SDS011;32800;44.876;13.880;2022-11-20T06:16:37;0.37;;;0.37;;
11418;SDS011;32800;44.876;13.880;2022-11-20T06:19:03;1.33;;;0.40;;
11418;SDS011;32800;44.876;13.880;2022-11-20T06:21:28;0.37;;;0.30;;
11418;SDS011;32800;44.876;13.880;2022-11-20T06:23:54;0.50;;;0.50;;
11418;SDS011;32800;44.876;13.880;2022-11-20T06:26:24;0.40;;;0.40;;
11418;SDS011;32800;44.876;13.880;2022-11-20T06:28:51;0.40;;;0.40;;
11418;SDS011;32800;44.876;13.880;2022-11-20T06:31:18;0.47;;;0.47;;
11418;SDS011;32800;44.876;13.880;2022-11-20T06:33:44;0.30;;;0.30;;
11418;SDS011;32800;44.876;13.880;2022-11-20T06:36:11;0.80;;;0.50;;
11418;SDS011;32800;44.876;13.880;2022-11-20T06:38:38;1.77;;;0.30;;
11418;SDS011;32800;44.876;13.880;2022-11-20T06:41:05;0.40;;;0.40;;
11418;SDS011;32800;44.876;13.880;2022-11-20T06:43:36;0.40;;;0.40;;
11418;SDS011;32800;44.876;13.880;2022-11-20T06:46:02;0.90;;;0.40;;
11418;SDS011;32800;44.876;13.880;2022-11-20T06:48:28;0.30;;;0.30;;
11418;SDS011;32800;44.876;13.880;2022-11-20T06:50:54;0.40;;;0.40;;
11418;SDS011;32800;44.876;13.880;2022-11-20T06:53:21;0.30;;;0.30;;
11418;SDS011;32800;44.876;13.880;2022-11-20T06:55:47;0.77;;;0.40;;
11418;SDS011;32800;44.876;13.880;2022-11-20T06:58:13;0.53;;;0.53;;
11418;SDS011;32800;44.876;13.880;2022-11-20T07:00:39;0.40;;;0.40;;
11418;SDS011;32800;44.876;13.880;2022-11-20T07:03:05;1.13;;;0.40;;
11418;SDS011;32800;44.876;13.880;2022-11-20T07:05:34;0.40;;;0.40;;
11418;SDS011;32800;44.876;13.880;2022-11-20T07:08:00;0.40;;;0.33;;
11418;SDS011;32800;44.876;13.880;2022-11-20T07:10:26;0.40;;;0.40;;
11418;SDS011;32800;44.876;13.880;2022-11-20T07:12:52;0.93;;;0.50;;
11418;SDS011;32800;44.876;13.880;2022-11-20T07:15:19;0.40;;;0.40;;
11418;SDS011;32800;44.876;13.880;2022-11-20T07:17:45;0.37;;;0.37;;
11418;SDS011;32800;44.876;13.880;2022-11-20T07:20:11;0.30;;;0.30;;
11418;SDS011;32800;44.876;13.880;2022-11-20T07:22:37;0.27;;;0.27;;
11418;SDS011;32800;44.876;13.880;2022-11-20T07:25:02;0.47;;;0.43;;
11418;SDS011;32800;44.876;13.880;2022-11-20T07:27:28;0.30;;;0.30;;
11418;SDS011;32800;44.876;13.880;2022-11-20T07:29:54;0.50;;;0.40;;
11418;SDS011;32800;44.876;13.880;2022-11-20T07:32:20;0.50;;;0.50;;
11418;SDS011;32800;44.876;13.880;2022-11-20T07:34:46;0.40;;;0.40;;
11418;SDS011;32800;44.876;13.880;2022-11-20T07:37:12;0.40;;;0.40;;
11418;SDS011;32800;44.876;13.880;2022-11-20T07:39:37;0.40;;;0.40;;
11418;SDS011;32800;44.876;13.880;2022-11-20T07:42:03;0.80;;;0.43;;
11418;SDS011;32800;44.876;13.880;2022-11-20T07:44:29;0.40;;;0.40;;
11418;SDS011;32800;44.876;13.880;2022-11-20T07:46:54;0.47;;;0.40;;
11418;SDS011;32800;44.876;13.880;2022-11-20T07:49:20;0.30;;;0.30;;
11418;SDS011;32800;44.876;13.880;2022-11-20T07:51:45;0.40;;;0.40;;
11418;SDS011;32800;44.876;13.880;2022-11-20T07:54:11;0.40;;;0.40;;
11418;SDS011;32800;44.876;13.880;2022-11-20T07:56:36;0.40;;;0.40;;
11418;SDS011;32800;44.876;13.880;2022-11-20T07:59:02;0.60;;;0.40;;
11418;SDS011;32800;44.876;13.880;2022-11-20T08:01:28;2.80;;;0.37;;
11418;SDS011;32800;44.876;13.880;2022-11-20T08:03:54;0.53;;;0.30;;
11418;SDS011;32800;44.876;13.880;2022-11-20T08:06:19;0.57;;;0.50;;
11418;SDS011;32800;44.876;13.880;2022-11-20T08:08:45;0.40;;;0.40;;
11418;SDS011;32800;44.876;13.880;2022-11-20T08:11:10;2.53;;;0.70;;
11418;SDS011;32800;44.876;13.880;2022-11-20T08:13:54;0.37;;;0.37;;
11418;SDS011;32800;44.876;13.880;2022-11-20T08:16:43;0.60;;;0.40;;
11418;SDS011;32800;44.876;13.880;2022-11-20T08:19:09;0.50;;;0.50;;
11418;SDS011;32800;44.876;13.880;2022-11-20T08:21:35;0.30;;;0.30;;
11418;SDS011;32800;44.876;13.880;2022-11-20T08:24:01;0.33;;;0.33;;
11418;SDS011;32800;44.876;13.880;2022-11-20T08:26:26;0.40;;;0.40;;
11418;SDS011;32800;44.876;13.880;2022-11-20T08:28:56;0.40;;;0.40;;
11418;SDS011;32800;44.876;13.880;2022-11-20T08:31:22;2.60;;;0.50;;
11418;SDS011;32800;44.876;13.880;2022-11-20T08:33:48;0.47;;;0.40;;
11418;SDS011;32800;44.876;13.880;2022-11-20T08:36:15;0.40;;;0.40;;
11418;SDS011;32800;44.876;13.880;2022-11-20T08:38:41;0.33;;;0.33;;
11418;SDS011;32800;44.876;13.880;2022-11-20T08:41:07;1.23;;;0.40;;
11418;SDS011;32800;44.876;13.880;2022-11-20T08:43:53;0.30;;;0.30;;
11418;SDS011;32800;44.876;13.880;2022-11-20T08:46:20;0.30;;;0.30;;
11418;SDS011;32800;44.876;13.880;2022-11-20T08:48:47;0.30;;;0.30;;
11418;SDS011;32800;44.876;13.880;2022-11-20T08:51:12;0.60;;;0.50;;
11418;SDS011;32800;44.876;13.880;2022-11-20T08:53:39;0.73;;;0.40;;
11418;SDS011;32800;44.876;13.880;2022-11-20T08:56:04;0.30;;;0.30;;
11418;SDS011;32800;44.876;13.880;2022-11-20T08:58:30;0.40;;;0.40;;
11418;SDS011;32800;44.876;13.880;2022-11-20T09:00:56;3.23;;;0.40;;
11418;SDS011;32800;44.876;13.880;2022-11-20T09:03:22;0.40;;;0.40;;
11418;SDS011;32800;44.876;13.880;2022-11-20T09:05:48;0.37;;;0.37;;
11418;SDS011;32800;44.876;13.880;2022-11-20T09:08:13;0.40;;;0.40;;
11418;SDS011;32800;44.876;13.880;2022-11-20T09:10:50;0.37;;;0.37;;
11418;SDS011;32800;44.876;13.880;2022-11-20T09:13:17;0.80;;;0.50;;
11418;SDS011;32800;44.876;13.880;2022-11-20T09:15:42;2.00;;;0.40;;
11418;SDS011;32800;44.876;13.880;2022-11-20T09:18:08;0.53;;;0.30;;
11418;SDS011;32800;44.876;13.880;2022-11-20T09:20:33;0.57;;;0.40;;
11418;SDS011;32800;44.876;13.880;2022-11-20T09:22:59;2.00;;;0.40;;
11418;SDS011;32800;44.876;13.880;2022-11-20T09:25:24;0.37;;;0.30;;
11418;SDS011;32800;44.876;13.880;2022-11-20T09:27:56;0.33;;;0.33;;
11418;SDS011;32800;44.876;13.880;2022-11-20T09:30:22;0.40;;;0.40;;
11418;SDS011;32800;44.876;13.880;2022-11-20T09:32:48;1.60;;;0.30;;
11418;SDS011;32800;44.876;13.880;2022-11-20T09:35:13;1.23;;;0.30;;
11418;SDS011;32800;44.876;13.880;2022-11-20T09:37:39;1.00;;;0.40;;
11418;SDS011;32800;44.876;13.880;2022-11-20T09:40:05;0.50;;;0.40;;
11418;SDS011;32800;44.876;13.880;2022-11-20T09:45:35;0.53;;;0.40;;
11418;SDS011;32800;44.876;13.880;2022-11-20T09:48:06;0.90;;;0.40;;
11418;SDS011;32800;44.876;13.880;2022-11-20T09:50:36;0.73;;;0.50;;
11418;SDS011;32800;44.876;13.880;2022-11-20T09:53:07;0.50;;;0.50;;
11418;SDS011;32800;44.876;13.880;2022-11-20T09:55:37;0.60;;;0.50;;
11418;SDS011;32800;44.876;13.880;2022-11-20T09:58:05;0.40;;;0.40;;
11418;SDS011;32800;44.876;13.880;2022-11-20T10:00:32;0.73;;;0.73;;
11418;SDS011;32800;44.876;13.880;2022-11-20T10:03:06;1.23;;;1.13;;
11418;SDS011;32800;44.876;13.880;2022-11-20T10:05:44;2.40;;;1.70;;
11418;SDS011;32800;44.876;13.880;2022-11-20T10:08:15;3.13;;;2.27;;
11418;SDS011;32800;44.876;13.880;2022-11-20T10:10:43;2.40;;;2.20;;
11418;SDS011;32800;44.876;13.880;2022-11-20T10:13:20;3.53;;;2.83;;
11418;SDS011;32800;44.876;13.880;2022-11-20T10:24:37;6.60;;;3.57;;
11418;SDS011;32800;44.876;13.880;2022-11-20T10:30:13;3.80;;;3.07;;
11418;SDS011;32800;44.876;13.880;2022-11-20T10:32:42;5.27;;;4.70;;
11418;SDS011;32800;44.876;13.880;2022-11-20T10:35:19;5.30;;;4.60;;
11418;SDS011;32800;44.876;13.880;2022-11-20T10:37:52;7.80;;;4.40;;
11418;SDS011;32800;44.876;13.880;2022-11-20T10:40:22;5.53;;;4.47;;
11418;SDS011;32800;44.876;13.880;2022-11-20T10:42:53;7.83;;;5.13;;
11418;SDS011;32800;44.876;13.880;2022-11-20T10:47:52;5.93;;;4.70;;
11418;SDS011;32800;44.876;13.880;2022-11-20T10:50:20;5.87;;;4.27;;
11418;SDS011;32800;44.876;13.880;2022-11-20T10:58:23;4.00;;;3.53;;
11418;SDS011;32800;44.876;13.880;2022-11-20T11:03:39;5.00;;;3.80;;
11418;SDS011;32800;44.876;13.880;2022-11-20T11:06:10;4.30;;;3.27;;
11418;SDS011;32800;44.876;13.880;2022-11-20T11:08:38;5.27;;;3.63;;
11418;SDS011;32800;44.876;13.880;2022-11-20T11:13:50;5.10;;;3.20;;
11418;SDS011;32800;44.876;13.880;2022-11-20T11:16:20;4.37;;;3.20;;
11418;SDS011;32800;44.876;13.880;2022-11-20T11:18:50;4.17;;;3.27;;
11418;SDS011;32800;44.876;13.880;2022-11-20T11:21:28;4.30;;;3.30;;
11418;SDS011;32800;44.876;13.880;2022-11-20T11:23:58;3.90;;;3.40;;
11418;SDS011;32800;44.876;13.880;2022-11-20T11:26:25;4.40;;;3.33;;
11418;SDS011;32800;44.876;13.880;2022-11-20T11:28:53;5.20;;;3.10;;
11418;SDS011;32800;44.876;13.880;2022-11-20T11:31:23;4.50;;;3.03;;
11418;SDS011;32800;44.876;13.880;2022-11-20T11:33:49;3.20;;;2.90;;
11418;SDS011;32800;44.876;13.880;2022-11-20T11:36:19;3.33;;;3.03;;
11418;SDS011;32800;44.876;13.880;2022-11-20T11:38:48;3.37;;;2.80;;
11418;SDS011;32800;44.876;13.880;2022-11-20T11:41:17;3.50;;;2.70;;
11418;SDS011;32800;44.876;13.880;2022-11-20T11:43:55;4.17;;;2.67;;
11418;SDS011;32800;44.876;13.880;2022-11-20T11:46:54;3.27;;;2.87;;
11418;SDS011;32800;44.876;13.880;2022-11-20T11:49:20;4.37;;;3.00;;
11418;SDS011;32800;44.876;13.880;2022-11-20T11:54:31;3.73;;;2.73;;
11418;SDS011;32800;44.876;13.880;2022-11-20T11:57:00;3.83;;;2.93;;
11418;SDS011;32800;44.876;13.880;2022-11-20T11:59:49;3.53;;;2.90;;
11418;SDS011;32800;44.876;13.880;2022-11-20T12:02:24;3.50;;;2.80;;
11418;SDS011;32800;44.876;13.880;2022-11-20T12:04:54;4.27;;;2.90;;
11418;SDS011;32800;44.876;13.880;2022-11-20T12:13:18;3.90;;;2.80;;
11418;SDS011;32800;44.876;13.880;2022-11-20T12:15:46;3.47;;;2.90;;
11418;SDS011;32800;44.876;13.880;2022-11-20T12:18:17;3.93;;;2.70;;
11418;SDS011;32800;44.876;13.880;2022-11-20T12:20:56;3.93;;;2.47;;
11418;SDS011;32800;44.876;13.880;2022-11-20T12:29:15;3.93;;;2.50;;
11418;SDS011;32800;44.876;13.880;2022-11-20T12:34:24;3.27;;;2.50;;
11418;SDS011;32800;44.876;13.880;2022-11-20T12:39:41;3.33;;;2.30;;
11418;SDS011;32800;44.876;13.880;2022-11-20T13:01:09;3.47;;;2.43;;
11418;SDS011;32800;44.876;13.880;2022-11-20T13:07:06;2.67;;;1.97;;
11418;SDS011;32800;44.876;13.880;2022-11-20T13:09:34;2.07;;;1.87;;
11418;SDS011;32800;44.876;13.880;2022-11-20T13:14:41;2.53;;;1.97;;
11418;SDS011;32800;44.876;13.880;2022-11-20T13:17:15;3.20;;;2.23;;
11418;SDS011;32800;44.876;13.880;2022-11-20T13:19:51;2.40;;;1.87;;
11418;SDS011;32800;44.876;13.880;2022-11-20T13:22:26;2.37;;;1.90;;
11418;SDS011;32800;44.876;13.880;2022-11-20T13:24:52;2.80;;;1.87;;
11418;SDS011;32800;44.876;13.880;2022-11-20T13:27:19;2.83;;;1.87;;
11418;SDS011;32800;44.876;13.880;2022-11-20T13:32:52;3.23;;;2.00;;
11418;SDS011;32800;44.876;13.880;2022-11-20T13:40:26;2.07;;;1.80;;
11418;SDS011;32800;44.876;13.880;2022-11-20T13:43:00;1.87;;;1.73;;
11418;SDS011;32800;44.876;13.880;2022-11-20T13:45:56;1.90;;;1.70;;
11418;SDS011;32800;44.876;13.880;2022-11-20T13:53:51;1.73;;;1.60;;
11418;SDS011;32800;44.876;13.880;2022-11-20T13:56:34;2.20;;;1.70;;
11418;SDS011;32800;44.876;13.880;2022-11-20T14:02:20;2.53;;;1.60;;
11418;SDS011;32800;44.876;13.880;2022-11-20T14:04:51;2.07;;;1.80;;
11418;SDS011;32800;44.876;13.880;2022-11-20T14:07:18;1.60;;;1.50;;
11418;SDS011;32800;44.876;13.880;2022-11-20T14:09:53;1.90;;;1.70;;
11418;SDS011;32800;44.876;13.880;2022-11-20T14:12:21;1.90;;;1.70;;
11418;SDS011;32800;44.876;13.880;2022-11-20T14:14:49;2.10;;;1.90;;
11418;SDS011;32800;44.876;13.880;2022-11-20T14:17:20;2.50;;;1.80;;
11418;SDS011;32800;44.876;13.880;2022-11-20T14:19:48;2.40;;;1.90;;
11418;SDS011;32800;44.876;13.880;2022-11-20T14:27:41;2.00;;;1.80;;
11418;SDS011;32800;44.876;13.880;2022-11-20T14:30:18;1.87;;;1.60;;
11418;SDS011;32800;44.876;13.880;2022-11-20T14:32:49;2.27;;;1.83;;
11418;SDS011;32800;44.876;13.880;2022-11-20T14:35:23;2.33;;;1.97;;
11418;SDS011;32800;44.876;13.880;2022-11-20T14:37:50;1.90;;;1.70;;
11418;SDS011;32800;44.876;13.880;2022-11-20T14:43:01;1.53;;;1.40;;
11418;SDS011;32800;44.876;13.880;2022-11-20T14:45:29;1.63;;;1.50;;
11418;SDS011;32800;44.876;13.880;2022-11-20T14:47:55;1.93;;;1.60;;
11418;SDS011;32800;44.876;13.880;2022-11-20T14:50:22;1.70;;;1.60;;
11418;SDS011;32800;44.876;13.880;2022-11-20T14:52:57;2.53;;;1.80;;
11418;SDS011;32800;44.876;13.880;2022-11-20T14:55:27;2.00;;;1.70;;
11418;SDS011;32800;44.876;13.880;2022-11-20T14:58:04;2.33;;;1.70;;
11418;SDS011;32800;44.876;13.880;2022-11-20T15:00:31;1.70;;;1.60;;
11418;SDS011;32800;44.876;13.880;2022-11-20T15:02:58;1.70;;;1.50;;
11418;SDS011;32800;44.876;13.880;2022-11-20T15:05:25;1.90;;;1.60;;
11418;SDS011;32800;44.876;13.880;2022-11-20T15:08:09;1.50;;;1.37;;
11418;SDS011;32800;44.876;13.880;2022-11-20T15:10:35;1.67;;;1.40;;
11418;SDS011;32800;44.876;13.880;2022-11-20T15:13:05;2.17;;;1.90;;
11418;SDS011;32800;44.876;13.880;2022-11-20T15:18:17;2.23;;;1.93;;
11418;SDS011;32800;44.876;13.880;2022-11-20T15:20:45;1.63;;;1.53;;
11418;SDS011;32800;44.876;13.880;2022-11-20T15:23:11;1.60;;;1.50;;
11418;SDS011;32800;44.876;13.880;2022-11-20T15:25:41;2.17;;;1.60;;
11418;SDS011;32800;44.876;13.880;2022-11-20T15:28:21;2.20;;;1.80;;
11418;SDS011;32800;44.876;13.880;2022-11-20T15:30:49;1.60;;;1.50;;
11418;SDS011;32800;44.876;13.880;2022-11-20T15:33:15;2.07;;;1.67;;
11418;SDS011;32800;44.876;13.880;2022-11-20T15:35:41;2.10;;;1.70;;
11418;SDS011;32800;44.876;13.880;2022-11-20T15:38:06;1.50;;;1.40;;
11418;SDS011;32800;44.876;13.880;2022-11-20T15:40:32;1.67;;;1.57;;
11418;SDS011;32800;44.876;13.880;2022-11-20T15:42:58;2.00;;;1.80;;
11418;SDS011;32800;44.876;13.880;2022-11-20T15:45:35;1.57;;;1.47;;
11418;SDS011;32800;44.876;13.880;2022-11-20T15:48:17;1.63;;;1.50;;
11418;SDS011;32800;44.876;13.880;2022-11-20T15:53:37;1.97;;;1.50;;
11418;SDS011;32800;44.876;13.880;2022-11-20T15:56:03;2.03;;;1.57;;
11418;SDS011;32800;44.876;13.880;2022-11-20T15:58:29;1.90;;;1.70;;
11418;SDS011;32800;44.876;13.880;2022-11-20T16:00:54;1.73;;;1.63;;
11418;SDS011;32800;44.876;13.880;2022-11-20T16:03:20;2.43;;;1.40;;
11418;SDS011;32800;44.876;13.880;2022-11-20T16:05:46;1.63;;;1.53;;
11418;SDS011;32800;44.876;13.880;2022-11-20T16:08:11;1.53;;;1.43;;
11418;SDS011;32800;44.876;13.880;2022-11-20T16:10:37;1.63;;;1.40;;
11418;SDS011;32800;44.876;13.880;2022-11-20T16:13:08;2.50;;;1.53;;
11418;SDS011;32800;44.876;13.880;2022-11-20T16:15:56;1.53;;;1.37;;
11418;SDS011;32800;44.876;13.880;2022-11-20T16:18:22;1.50;;;1.40;;
11418;SDS011;32800;44.876;13.880;2022-11-20T16:20:49;2.13;;;1.70;;
11418;SDS011;32800;44.876;13.880;2022-11-20T16:23:18;2.03;;;1.47;;
11418;SDS011;32800;44.876;13.880;2022-11-20T16:25:45;1.70;;;1.60;;